sensor_id;sensor_type;location;lat;lon;timestamp;pressure;altitude;pressure_sealevel;temperature;humidity
51468;BME280;37545;45.302;-122.946;2022-09-17T00:01:38;101130.97;;;23.25;37.08
51468;BME280;37545;45.302;-122.946;2022-09-17T00:04:08;101123.06;;;23.24;36.78
51468;BME280;37545;45.302;-122.946;2022-09-17T00:06:37;101116.91;;;23.23;36.89
51468;BME280;37545;45.302;-122.946;2022-09-17T00:09:06;101118.63;;;23.26;38.60
51468;BME280;37545;45.302;-122.946;2022-09-17T00:11:37;101124.78;;;23.25;37.54
51468;BME280;37545;45.302;-122.946;2022-09-17T00:14:11;101112.41;;;23.30;37.61
51468;BME280;37545;45.302;-122.946;2022-09-17T00:16:43;101114.19;;;23.28;37.41
51468;BME280;37545;45.302;-122.946;2022-09-17T00:19:13;101107.22;;;23.24;38.16
51468;BME280;37545;45.302;-122.946;2022-09-17T00:21:43;101114.28;;;23.21;38.01
51468;BME280;37545;45.302;-122.946;2022-09-17T00:24:13;101102.00;;;23.20;38.50
51468;BME280;37545;45.302;-122.946;2022-09-17T00:26:42;101101.03;;;23.25;37.47
51468;BME280;37545;45.302;-122.946;2022-09-17T00:29:13;101101.09;;;23.23;37.43
51468;BME280;37545;45.302;-122.946;2022-09-17T00:31:41;101096.66;;;23.24;37.36
51468;BME280;37545;45.302;-122.946;2022-09-17T00:34:10;101093.09;;;23.25;37.08
51468;BME280;37545;45.302;-122.946;2022-09-17T00:36:39;101097.53;;;23.23;36.95
51468;BME280;37545;45.302;-122.946;2022-09-17T00:39:10;101087.03;;;23.19;37.71
51468;BME280;37545;45.302;-122.946;2022-09-17T00:41:50;101082.69;;;23.18;38.32
51468;BME280;37545;45.302;-122.946;2022-09-17T00:44:44;101086.25;;;23.14;37.87
51468;BME280;37545;45.302;-122.946;2022-09-17T00:47:27;101079.31;;;23.09;38.45
51468;BME280;37545;45.302;-122.946;2022-09-17T00:50:00;101082.88;;;23.06;38.02
51468;BME280;37545;45.302;-122.946;2022-09-17T00:52:33;101076.78;;;23.03;37.78
51468;BME280;37545;45.302;-122.946;2022-09-17T00:55:12;101081.22;;;23.02;37.54
51468;BME280;37545;45.302;-122.946;2022-09-17T00:57:41;101075.97;;;22.99;37.50
51468;BME280;37545;45.302;-122.946;2022-09-17T01:00:15;101072.44;;;22.97;37.04
51468;BME280;37545;45.302;-122.946;2022-09-17T01:02:44;101073.38;;;22.93;37.57
51468;BME280;37545;45.302;-122.946;2022-09-17T01:05:13;101075.22;;;22.89;37.68
51468;BME280;37545;45.302;-122.946;2022-09-17T01:07:55;101070.88;;;22.84;37.62
51468;BME280;37545;45.302;-122.946;2022-09-17T01:10:47;101073.66;;;22.76;37.93
51468;BME280;37545;45.302;-122.946;2022-09-17T01:13:27;101072.84;;;22.72;38.24
51468;BME280;37545;45.302;-122.946;2022-09-17T01:16:07;101072.03;;;22.67;38.34
51468;BME280;37545;45.302;-122.946;2022-09-17T01:18:52;101080.91;;;22.63;38.43
51468;BME280;37545;45.302;-122.946;2022-09-17T01:21:36;101069.53;;;22.58;39.03
51468;BME280;37545;45.302;-122.946;2022-09-17T01:27:47;101069.78;;;22.43;39.93
51468;BME280;37545;45.302;-122.946;2022-09-17T01:30:42;101061.97;;;22.35;40.24
51468;BME280;37545;45.302;-122.946;2022-09-17T01:33:26;101055.00;;;22.31;39.98
51468;BME280;37545;45.302;-122.946;2022-09-17T01:36:06;101052.44;;;22.26;40.46
51468;BME280;37545;45.302;-122.946;2022-09-17T01:38:41;101061.28;;;22.19;40.77
51468;BME280;37545;45.302;-122.946;2022-09-17T01:41:18;101065.75;;;22.14;41.08
51468;BME280;37545;45.302;-122.946;2022-09-17T01:43:54;101058.81;;;22.05;40.83
51468;BME280;37545;45.302;-122.946;2022-09-17T01:46:29;101059.75;;;22.03;41.06
51468;BME280;37545;45.302;-122.946;2022-09-17T01:49:01;101060.66;;;21.99;42.07
51468;BME280;37545;45.302;-122.946;2022-09-17T01:51:35;101054.59;;;21.93;41.71
51468;BME280;37545;45.302;-122.946;2022-09-17T01:54:12;101052.03;;;21.87;41.80
51468;BME280;37545;45.302;-122.946;2022-09-17T01:56:46;101052.97;;;21.83;42.30
51468;BME280;37545;45.302;-122.946;2022-09-17T01:59:19;101053.03;;;21.77;42.44
51468;BME280;37545;45.302;-122.946;2022-09-17T02:01:54;101057.47;;;21.73;42.89
51468;BME280;37545;45.302;-122.946;2022-09-17T02:04:29;101058.44;;;21.66;42.91
51468;BME280;37545;45.302;-122.946;2022-09-17T02:07:04;101058.53;;;21.57;43.85
51468;BME280;37545;45.302;-122.946;2022-09-17T02:09:37;101056.03;;;21.45;44.51
51468;BME280;37545;45.302;-122.946;2022-09-17T02:12:12;101056.13;;;21.34;45.41
51468;BME280;37545;45.302;-122.946;2022-09-17T02:14:47;101053.56;;;21.26;45.79
51468;BME280;37545;45.302;-122.946;2022-09-17T02:17:24;101058.03;;;21.18;46.14
51468;BME280;37545;45.302;-122.946;2022-09-17T02:19:55;101055.44;;;21.13;46.10
51468;BME280;37545;45.302;-122.946;2022-09-17T02:22:28;101052.88;;;21.07;46.88
51468;BME280;37545;45.302;-122.946;2022-09-17T02:25:03;101054.69;;;20.99;47.21
51468;BME280;37545;45.302;-122.946;2022-09-17T02:27:40;101052.09;;;20.93;47.38
51468;BME280;37545;45.302;-122.946;2022-09-17T02:30:11;101048.69;;;20.85;47.34
51468;BME280;37545;45.302;-122.946;2022-09-17T02:32:49;101057.53;;;20.78;47.80
51468;BME280;37545;45.302;-122.946;2022-09-17T02:35:17;101047.03;;;20.71;48.21
51468;BME280;37545;45.302;-122.946;2022-09-17T02:37:46;101053.19;;;20.66;48.67
51468;BME280;37545;45.302;-122.946;2022-09-17T02:40:17;101052.41;;;20.59;48.70
51468;BME280;37545;45.302;-122.946;2022-09-17T02:42:57;101050.63;;;20.52;48.59
51468;BME280;37545;45.302;-122.946;2022-09-17T02:45:43;101051.56;;;20.45;48.96
51468;BME280;37545;45.302;-122.946;2022-09-17T02:48:33;101049.84;;;20.39;49.14
51468;BME280;37545;45.302;-122.946;2022-09-17T02:51:17;101056.91;;;20.34;49.55
51468;BME280;37545;45.302;-122.946;2022-09-17T02:53:56;101056.03;;;20.30;49.18
51468;BME280;37545;45.302;-122.946;2022-09-17T02:56:38;101049.91;;;20.27;49.08
51468;BME280;37545;45.302;-122.946;2022-09-17T02:59:15;101055.22;;;20.21;49.65
51468;BME280;37545;45.302;-122.946;2022-09-17T03:01:49;101054.34;;;20.17;49.68
51468;BME280;37545;45.302;-122.946;2022-09-17T03:04:23;101049.13;;;20.13;50.06
51468;BME280;37545;45.302;-122.946;2022-09-17T03:06:53;101050.03;;;20.12;50.05
51468;BME280;37545;45.302;-122.946;2022-09-17T03:09:25;101050.00;;;20.08;49.93
51468;BME280;37545;45.302;-122.946;2022-09-17T03:11:53;101045.69;;;20.04;50.35
51468;BME280;37545;45.302;-122.946;2022-09-17T03:14:22;101043.06;;;20.01;51.25
51468;BME280;37545;45.302;-122.946;2022-09-17T03:16:50;101037.88;;;19.89;51.15
51468;BME280;37545;45.302;-122.946;2022-09-17T03:19:21;101042.25;;;19.85;51.69
51468;BME280;37545;45.302;-122.946;2022-09-17T03:21:53;101044.03;;;19.80;52.09
51468;BME280;37545;45.302;-122.946;2022-09-17T03:24:22;101043.16;;;19.78;51.54
51468;BME280;37545;45.302;-122.946;2022-09-17T03:26:51;101048.41;;;19.72;51.74
51468;BME280;37545;45.302;-122.946;2022-09-17T03:29:19;101047.53;;;19.67;51.60
51468;BME280;37545;45.302;-122.946;2022-09-17T03:31:48;101041.44;;;19.63;52.32
51468;BME280;37545;45.302;-122.946;2022-09-17T03:34:17;101042.31;;;19.58;53.22
51468;BME280;37545;45.302;-122.946;2022-09-17T03:36:47;101038.84;;;19.50;52.66
51468;BME280;37545;45.302;-122.946;2022-09-17T03:39:16;101038.00;;;19.43;53.81
51468;BME280;37545;45.302;-122.946;2022-09-17T03:41:45;101047.59;;;19.39;53.67
51468;BME280;37545;45.302;-122.946;2022-09-17T03:44:13;101043.25;;;19.34;53.60
51468;BME280;37545;45.302;-122.946;2022-09-17T03:46:44;101043.28;;;19.29;53.10
51468;BME280;37545;45.302;-122.946;2022-09-17T03:49:13;101040.66;;;19.24;53.15
51468;BME280;37545;45.302;-122.946;2022-09-17T03:51:41;101036.28;;;19.19;53.30
51468;BME280;37545;45.302;-122.946;2022-09-17T03:54:12;101041.53;;;19.11;53.38
51468;BME280;37545;45.302;-122.946;2022-09-17T03:56:41;101043.31;;;19.06;54.16
51468;BME280;37545;45.302;-122.946;2022-09-17T03:59:10;101041.53;;;19.00;54.91
51468;BME280;37545;45.302;-122.946;2022-09-17T04:01:38;101038.06;;;18.91;54.50
51468;BME280;37545;45.302;-122.946;2022-09-17T04:04:07;101031.94;;;18.84;54.46
51468;BME280;37545;45.302;-122.946;2022-09-17T04:06:36;101031.94;;;18.81;54.04
51468;BME280;37545;45.302;-122.946;2022-09-17T04:09:05;101031.94;;;18.78;54.31
51468;BME280;37545;45.302;-122.946;2022-09-17T04:11:35;101027.56;;;18.74;54.85
51468;BME280;37545;45.302;-122.946;2022-09-17T04:14:04;101032.78;;;18.68;54.95
51468;BME280;37545;45.302;-122.946;2022-09-17T04:16:33;101024.06;;;18.62;55.44
51468;BME280;37545;45.302;-122.946;2022-09-17T04:19:02;101031.91;;;18.56;56.14
51468;BME280;37545;45.302;-122.946;2022-09-17T04:21:33;101033.66;;;18.51;56.17
51468;BME280;37545;45.302;-122.946;2022-09-17T04:24:02;101014.41;;;18.40;56.12
51468;BME280;37545;45.302;-122.946;2022-09-17T04:26:31;101024.03;;;18.42;56.70
51468;BME280;37545;45.302;-122.946;2022-09-17T04:29:01;101024.91;;;18.40;56.26
51468;BME280;37545;45.302;-122.946;2022-09-17T04:31:29;101027.50;;;18.40;56.38
51468;BME280;37545;45.302;-122.946;2022-09-17T04:33:58;101021.41;;;18.38;56.55
51468;BME280;37545;45.302;-122.946;2022-09-17T04:36:27;101015.25;;;18.34;56.45
51468;BME280;37545;45.302;-122.946;2022-09-17T04:38:55;101014.41;;;18.34;56.82
51468;BME280;37545;45.302;-122.946;2022-09-17T04:41:24;101007.44;;;18.33;56.52
51468;BME280;37545;45.302;-122.946;2022-09-17T04:43:53;101004.78;;;18.31;57.09
51468;BME280;37545;45.302;-122.946;2022-09-17T04:46:23;100997.81;;;18.30;56.44
51468;BME280;37545;45.302;-122.946;2022-09-17T04:48:51;100991.69;;;18.30;56.66
51468;BME280;37545;45.302;-122.946;2022-09-17T04:51:20;100990.81;;;18.29;56.90
51468;BME280;37545;45.302;-122.946;2022-09-17T04:53:48;100987.31;;;18.24;57.47
51468;BME280;37545;45.302;-122.946;2022-09-17T04:56:17;100977.69;;;18.20;57.27
51468;BME280;37545;45.302;-122.946;2022-09-17T04:58:46;100982.06;;;18.19;57.32
51468;BME280;37545;45.302;-122.946;2022-09-17T05:01:14;100973.31;;;18.16;57.28
51468;BME280;37545;45.302;-122.946;2022-09-17T05:03:45;100974.19;;;18.13;57.83
51468;BME280;37545;45.302;-122.946;2022-09-17T05:06:14;100972.44;;;18.09;57.89
51468;BME280;37545;45.302;-122.946;2022-09-17T05:08:42;100967.19;;;18.06;58.12
51468;BME280;37545;45.302;-122.946;2022-09-17T05:11:11;100967.19;;;18.06;57.81
51468;BME280;37545;45.302;-122.946;2022-09-17T05:13:40;100964.56;;;18.05;57.52
51468;BME280;37545;45.302;-122.946;2022-09-17T05:16:08;100955.88;;;18.06;57.47
51468;BME280;37545;45.302;-122.946;2022-09-17T05:18:37;100956.72;;;18.06;57.97
51468;BME280;37545;45.302;-122.946;2022-09-17T05:21:10;100951.50;;;18.06;57.95
51468;BME280;37545;45.302;-122.946;2022-09-17T05:23:42;100958.47;;;18.07;57.97
51468;BME280;37545;45.302;-122.946;2022-09-17T05:26:10;100943.63;;;18.05;58.42
51468;BME280;37545;45.302;-122.946;2022-09-17T05:28:39;100945.38;;;18.01;58.22
51468;BME280;37545;45.302;-122.946;2022-09-17T05:31:08;100934.03;;;17.96;58.55
51468;BME280;37545;45.302;-122.946;2022-09-17T05:33:36;100929.66;;;17.87;58.04
51468;BME280;37545;45.302;-122.946;2022-09-17T05:36:05;100935.75;;;17.91;58.45
51468;BME280;37545;45.302;-122.946;2022-09-17T05:38:36;100927.03;;;17.83;58.46
51468;BME280;37545;45.302;-122.946;2022-09-17T05:41:05;100923.47;;;17.80;57.97
51468;BME280;37545;45.302;-122.946;2022-09-17T05:43:34;100919.09;;;17.79;58.33
51468;BME280;37545;45.302;-122.946;2022-09-17T05:46:03;100920.00;;;17.75;58.43
51468;BME280;37545;45.302;-122.946;2022-09-17T05:48:32;100905.13;;;17.65;57.76
51468;BME280;37545;45.302;-122.946;2022-09-17T05:51:01;100921.69;;;17.70;57.39
51468;BME280;37545;45.302;-122.946;2022-09-17T05:53:30;100913.88;;;17.69;57.51
51468;BME280;37545;45.302;-122.946;2022-09-17T05:56:00;100916.47;;;17.64;57.35
51468;BME280;37545;45.302;-122.946;2022-09-17T05:58:29;100916.44;;;17.58;57.84
51468;BME280;37545;45.302;-122.946;2022-09-17T06:01:00;100910.31;;;17.51;57.78
51468;BME280;37545;45.302;-122.946;2022-09-17T06:03:28;100915.53;;;17.48;57.95
51468;BME280;37545;45.302;-122.946;2022-09-17T06:05:58;100910.28;;;17.45;56.42
51468;BME280;37545;45.302;-122.946;2022-09-17T06:08:27;100909.41;;;17.38;55.38
51468;BME280;37545;45.302;-122.946;2022-09-17T06:10:56;100906.75;;;17.35;56.25
51468;BME280;37545;45.302;-122.946;2022-09-17T06:13:26;100902.38;;;17.31;56.38
51468;BME280;37545;45.302;-122.946;2022-09-17T06:15:55;100900.63;;;17.27;55.83
51468;BME280;37545;45.302;-122.946;2022-09-17T06:18:30;100901.47;;;17.25;56.39
51468;BME280;37545;45.302;-122.946;2022-09-17T06:21:00;100903.25;;;17.23;56.75
51468;BME280;37545;45.302;-122.946;2022-09-17T06:23:31;100900.59;;;17.20;56.40
51468;BME280;37545;45.302;-122.946;2022-09-17T06:26:01;100896.25;;;17.19;56.88
51468;BME280;37545;45.302;-122.946;2022-09-17T06:28:32;100897.97;;;17.20;56.75
51468;BME280;37545;45.302;-122.946;2022-09-17T06:31:01;100897.09;;;17.19;56.90
51468;BME280;37545;45.302;-122.946;2022-09-17T06:33:31;100891.00;;;17.20;55.79
51468;BME280;37545;45.302;-122.946;2022-09-17T06:36:00;100889.25;;;17.19;55.55
51468;BME280;37545;45.302;-122.946;2022-09-17T06:38:31;100890.13;;;17.20;55.58
51468;BME280;37545;45.302;-122.946;2022-09-17T06:41:00;100893.59;;;17.20;55.00
51468;BME280;37545;45.302;-122.946;2022-09-17T06:43:29;100894.47;;;17.17;54.80
51468;BME280;37545;45.302;-122.946;2022-09-17T06:46:00;100883.16;;;17.14;54.87
51468;BME280;37545;45.302;-122.946;2022-09-17T06:48:29;100882.28;;;17.13;55.14
51468;BME280;37545;45.302;-122.946;2022-09-17T06:51:02;100884.88;;;17.15;55.05
51468;BME280;37545;45.302;-122.946;2022-09-17T06:53:31;100886.63;;;17.14;54.14
51468;BME280;37545;45.302;-122.946;2022-09-17T06:56:00;100884.00;;;17.11;54.84
51468;BME280;37545;45.302;-122.946;2022-09-17T06:58:29;100871.81;;;17.09;55.02
51468;BME280;37545;45.302;-122.946;2022-09-17T07:01:00;100868.31;;;17.07;55.07
51468;BME280;37545;45.302;-122.946;2022-09-17T07:03:30;100863.06;;;17.05;55.20
51468;BME280;37545;45.302;-122.946;2022-09-17T07:05:59;100868.25;;;17.04;55.70
51468;BME280;37545;45.302;-122.946;2022-09-17T07:08:28;100862.19;;;17.05;55.77
51468;BME280;37545;45.302;-122.946;2022-09-17T07:10:59;100861.28;;;17.01;56.13
51468;BME280;37545;45.302;-122.946;2022-09-17T07:13:28;100858.69;;;17.03;55.50
51468;BME280;37545;45.302;-122.946;2022-09-17T07:15:59;100844.72;;;17.01;55.29
51468;BME280;37545;45.302;-122.946;2022-09-17T07:18:28;100837.75;;;16.96;56.12
51468;BME280;37545;45.302;-122.946;2022-09-17T07:20:58;100835.09;;;16.92;56.35
51468;BME280;37545;45.302;-122.946;2022-09-17T07:23:28;100841.19;;;16.89;56.43
51468;BME280;37545;45.302;-122.946;2022-09-17T07:25:58;100843.81;;;16.86;56.10
51468;BME280;37545;45.302;-122.946;2022-09-17T07:28:28;100838.53;;;16.83;55.90
51468;BME280;37545;45.302;-122.946;2022-09-17T07:30:56;100830.69;;;16.80;56.33
51468;BME280;37545;45.302;-122.946;2022-09-17T07:33:27;100827.13;;;16.72;56.52
51468;BME280;37545;45.302;-122.946;2022-09-17T07:35:57;100825.38;;;16.71;56.14
51468;BME280;37545;45.302;-122.946;2022-09-17T07:38:27;100814.03;;;16.64;57.12
51468;BME280;37545;45.302;-122.946;2022-09-17T07:40:57;100815.75;;;16.61;56.71
51468;BME280;37545;45.302;-122.946;2022-09-17T07:43:27;100813.97;;;16.58;57.07
51468;BME280;37545;45.302;-122.946;2022-09-17T07:45:57;100812.25;;;16.54;57.25
51468;BME280;37545;45.302;-122.946;2022-09-17T07:48:28;100813.06;;;16.51;57.79
51468;BME280;37545;45.302;-122.946;2022-09-17T07:50:57;100813.06;;;16.48;57.86
51468;BME280;37545;45.302;-122.946;2022-09-17T07:53:26;100811.28;;;16.44;57.99
51468;BME280;37545;45.302;-122.946;2022-09-17T07:55:55;100806.94;;;16.40;58.07
51468;BME280;37545;45.302;-122.946;2022-09-17T07:58:28;100806.00;;;16.35;58.15
51468;BME280;37545;45.302;-122.946;2022-09-17T08:01:00;100797.28;;;16.30;57.80
51468;BME280;37545;45.302;-122.946;2022-09-17T08:03:31;100801.56;;;16.23;58.13
51468;BME280;37545;45.302;-122.946;2022-09-17T08:06:03;100795.44;;;16.17;58.71
51468;BME280;37545;45.302;-122.946;2022-09-17T08:08:33;100797.16;;;16.15;59.70
51468;BME280;37545;45.302;-122.946;2022-09-17T08:11:02;100793.66;;;16.11;59.62
51468;BME280;37545;45.302;-122.946;2022-09-17T08:13:31;100794.53;;;16.08;60.32
51468;BME280;37545;45.302;-122.946;2022-09-17T08:16:01;100786.66;;;16.04;60.48
51468;BME280;37545;45.302;-122.946;2022-09-17T08:18:31;100793.56;;;15.99;60.10
51468;BME280;37545;45.302;-122.946;2022-09-17T08:21:01;100783.97;;;15.96;60.34
51468;BME280;37545;45.302;-122.946;2022-09-17T08:23:31;100774.34;;;15.89;60.31
51468;BME280;37545;45.302;-122.946;2022-09-17T08:26:02;100781.38;;;15.95;61.26
51468;BME280;37545;45.302;-122.946;2022-09-17T08:28:31;100777.88;;;15.93;61.46
51468;BME280;37545;45.302;-122.946;2022-09-17T08:31:01;100772.59;;;15.89;61.54
51468;BME280;37545;45.302;-122.946;2022-09-17T08:33:32;100780.41;;;15.86;61.56
51468;BME280;37545;45.302;-122.946;2022-09-17T08:36:01;100767.34;;;15.85;61.01
51468;BME280;37545;45.302;-122.946;2022-09-17T08:38:31;100769.06;;;15.80;60.89
51468;BME280;37545;45.302;-122.946;2022-09-17T08:41:17;100772.50;;;15.76;61.22
51468;BME280;37545;45.302;-122.946;2022-09-17T08:43:58;100763.81;;;15.74;60.84
51468;BME280;37545;45.302;-122.946;2022-09-17T08:46:32;100764.63;;;15.71;60.61
51468;BME280;37545;45.302;-122.946;2022-09-17T08:49:12;100768.06;;;15.68;60.89
51468;BME280;37545;45.302;-122.946;2022-09-17T08:51:50;100766.28;;;15.66;62.16
51468;BME280;37545;45.302;-122.946;2022-09-17T08:54:27;100757.53;;;15.59;62.17
51468;BME280;37545;45.302;-122.946;2022-09-17T08:57:08;100753.13;;;15.52;62.23
51468;BME280;37545;45.302;-122.946;2022-09-17T08:59:41;100754.84;;;15.50;62.16
51468;BME280;37545;45.302;-122.946;2022-09-17T09:02:20;100759.19;;;15.48;62.89
51468;BME280;37545;45.302;-122.946;2022-09-17T09:05:00;100742.63;;;15.43;62.86
51468;BME280;37545;45.302;-122.946;2022-09-17T09:07:35;100739.09;;;15.38;62.57
51468;BME280;37545;45.302;-122.946;2022-09-17T09:10:15;100747.81;;;15.40;62.36
51468;BME280;37545;45.302;-122.946;2022-09-17T09:12:45;100745.19;;;15.38;62.30
51468;BME280;37545;45.302;-122.946;2022-09-17T09:15:31;100740.81;;;15.36;62.57
51468;BME280;37545;45.302;-122.946;2022-09-17T09:18:11;100748.63;;;15.33;62.66
51468;BME280;37545;45.302;-122.946;2022-09-17T09:20:49;100742.44;;;15.24;62.63
51468;BME280;37545;45.302;-122.946;2022-09-17T09:23:21;100747.69;;;15.27;63.24
51468;BME280;37545;45.302;-122.946;2022-09-17T09:26:02;100747.66;;;15.24;63.15
51468;BME280;37545;45.302;-122.946;2022-09-17T09:28:58;100741.53;;;15.21;63.43
51468;BME280;37545;45.302;-122.946;2022-09-17T09:31:52;100739.78;;;15.17;63.16
51468;BME280;37545;45.302;-122.946;2022-09-17T09:34:25;100736.22;;;15.10;63.29
51468;BME280;37545;45.302;-122.946;2022-09-17T09:37:01;100730.00;;;14.99;63.58
51468;BME280;37545;45.302;-122.946;2022-09-17T09:39:35;100723.00;;;14.95;63.70
51468;BME280;37545;45.302;-122.946;2022-09-17T09:42:10;100728.19;;;14.93;64.72
51468;BME280;37545;45.302;-122.946;2022-09-17T09:44:41;100721.19;;;14.87;64.65
51468;BME280;37545;45.302;-122.946;2022-09-17T09:47:32;100719.38;;;14.80;64.37
51468;BME280;37545;45.302;-122.946;2022-09-17T09:50:18;100719.34;;;14.77;65.08
51468;BME280;37545;45.302;-122.946;2022-09-17T09:53:01;100721.03;;;14.71;65.07
51468;BME280;37545;45.302;-122.946;2022-09-17T09:55:48;100714.81;;;14.62;65.43
51468;BME280;37545;45.302;-122.946;2022-09-17T09:58:26;100707.72;;;14.52;66.09
51468;BME280;37545;45.302;-122.946;2022-09-17T10:00:59;100704.19;;;14.45;67.58
51468;BME280;37545;45.302;-122.946;2022-09-17T10:03:29;100711.91;;;14.39;67.29
51468;BME280;37545;45.302;-122.946;2022-09-17T10:05:58;100715.31;;;14.35;67.48
51468;BME280;37545;45.302;-122.946;2022-09-17T10:08:31;100697.91;;;14.31;68.03
51468;BME280;37545;45.302;-122.946;2022-09-17T10:11:02;100704.81;;;14.28;68.22
51468;BME280;37545;45.302;-122.946;2022-09-17T10:13:32;100701.34;;;14.27;68.43
51468;BME280;37545;45.302;-122.946;2022-09-17T10:16:16;100697.91;;;14.30;67.44
51468;BME280;37545;45.302;-122.946;2022-09-17T10:18:46;100697.03;;;14.31;67.79
51468;BME280;37545;45.302;-122.946;2022-09-17T10:21:20;100691.81;;;14.31;67.20
51468;BME280;37545;45.302;-122.946;2022-09-17T10:23:50;100685.72;;;14.27;67.30
51468;BME280;37545;45.302;-122.946;2022-09-17T10:26:21;100693.47;;;14.24;67.09
51468;BME280;37545;45.302;-122.946;2022-09-17T10:28:53;100697.72;;;14.17;67.60
51468;BME280;37545;45.302;-122.946;2022-09-17T10:31:22;100687.22;;;14.10;68.32
51468;BME280;37545;45.302;-122.946;2022-09-17T10:33:55;100687.97;;;14.04;68.33
51468;BME280;37545;45.302;-122.946;2022-09-17T10:36:39;100688.88;;;14.04;68.14
51468;BME280;37545;45.302;-122.946;2022-09-17T10:39:30;100678.47;;;14.04;67.75
51468;BME280;37545;45.302;-122.946;2022-09-17T10:42:01;100674.97;;;14.02;68.00
51468;BME280;37545;45.302;-122.946;2022-09-17T10:44:31;100667.97;;;13.98;68.19
51468;BME280;37545;45.302;-122.946;2022-09-17T10:47:11;100671.44;;;13.97;67.93
51468;BME280;37545;45.302;-122.946;2022-09-17T10:49:42;100663.63;;;13.97;68.21
51468;BME280;37545;45.302;-122.946;2022-09-17T10:52:18;100661.06;;;14.00;68.08
51468;BME280;37545;45.302;-122.946;2022-09-17T10:55:17;100649.78;;;14.01;68.43
51468;BME280;37545;45.302;-122.946;2022-09-17T10:58:00;100646.34;;;14.04;67.39
51468;BME280;37545;45.302;-122.946;2022-09-17T11:00:37;100635.94;;;14.02;67.48
51468;BME280;37545;45.302;-122.946;2022-09-17T11:09:20;100631.66;;;14.04;66.53
51468;BME280;37545;45.302;-122.946;2022-09-17T11:12:03;100628.97;;;14.01;66.61
51468;BME280;37545;45.302;-122.946;2022-09-17T11:14:49;100622.03;;;14.00;66.32
51468;BME280;37545;45.302;-122.946;2022-09-17T11:17:33;100604.63;;;13.93;66.79
51468;BME280;37545;45.302;-122.946;2022-09-17T11:20:19;100621.16;;;13.98;65.95
51468;BME280;37545;45.302;-122.946;2022-09-17T11:23:00;100623.75;;;13.98;65.84
51468;BME280;37545;45.302;-122.946;2022-09-17T11:25:45;100628.06;;;13.96;65.46
51468;BME280;37545;45.302;-122.946;2022-09-17T11:28:26;100624.56;;;13.94;65.75
51468;BME280;37545;45.302;-122.946;2022-09-17T11:31:17;100630.66;;;13.96;65.25
51468;BME280;37545;45.302;-122.946;2022-09-17T11:34:03;100622.84;;;13.96;65.74
51468;BME280;37545;45.302;-122.946;2022-09-17T11:36:45;100624.59;;;13.96;65.05
51468;BME280;37545;45.302;-122.946;2022-09-17T11:39:16;100624.63;;;13.97;65.10
51468;BME280;37545;45.302;-122.946;2022-09-17T11:41:49;100633.25;;;13.96;65.37
51468;BME280;37545;45.302;-122.946;2022-09-17T11:44:24;100621.94;;;13.94;64.92
51468;BME280;37545;45.302;-122.946;2022-09-17T11:46:57;100619.31;;;13.91;64.96
51468;BME280;37545;45.302;-122.946;2022-09-17T11:49:34;100605.38;;;13.86;65.66
51468;BME280;37545;45.302;-122.946;2022-09-17T11:52:08;100613.19;;;13.86;66.32
51468;BME280;37545;45.302;-122.946;2022-09-17T11:54:43;100608.00;;;13.86;66.64
51468;BME280;37545;45.302;-122.946;2022-09-17T11:57:18;100598.41;;;13.83;66.46
51468;BME280;37545;45.302;-122.946;2022-09-17T11:59:53;100598.41;;;13.85;66.39
51468;BME280;37545;45.302;-122.946;2022-09-17T12:02:29;100607.09;;;13.86;66.64
51468;BME280;37545;45.302;-122.946;2022-09-17T12:05:08;100601.88;;;13.84;66.39
51468;BME280;37545;45.302;-122.946;2022-09-17T12:07:48;100603.59;;;13.82;65.92
51468;BME280;37545;45.302;-122.946;2022-09-17T12:10:31;100600.09;;;13.80;66.56
51468;BME280;37545;45.302;-122.946;2022-09-17T12:13:12;100602.66;;;13.77;66.14
51468;BME280;37545;45.302;-122.946;2022-09-17T12:15:48;100593.91;;;13.72;66.24
51468;BME280;37545;45.302;-122.946;2022-09-17T12:18:23;100599.06;;;13.69;66.80
51468;BME280;37545;45.302;-122.946;2022-09-17T12:20:56;100600.72;;;13.65;66.41
51468;BME280;37545;45.302;-122.946;2022-09-17T12:23:33;100595.50;;;13.62;66.42
51468;BME280;37545;45.302;-122.946;2022-09-17T12:26:13;100592.88;;;13.59;66.38
51468;BME280;37545;45.302;-122.946;2022-09-17T12:28:49;100595.41;;;13.54;66.40
51468;BME280;37545;45.302;-122.946;2022-09-17T12:31:27;100591.88;;;13.49;66.89
51468;BME280;37545;45.302;-122.946;2022-09-17T12:34:05;100585.66;;;13.41;67.22
51468;BME280;37545;45.302;-122.946;2022-09-17T12:36:47;100587.31;;;13.36;66.61
51468;BME280;37545;45.302;-122.946;2022-09-17T12:42:52;100580.31;;;13.32;67.34
51468;BME280;37545;45.302;-122.946;2022-09-17T12:45:35;100577.69;;;13.29;68.27
51468;BME280;37545;45.302;-122.946;2022-09-17T12:48:28;100580.22;;;13.27;67.89
51468;BME280;37545;45.302;-122.946;2022-09-17T12:51:09;100570.66;;;13.25;67.67
51468;BME280;37545;45.302;-122.946;2022-09-17T12:53:55;100567.13;;;13.21;67.51
51468;BME280;37545;45.302;-122.946;2022-09-17T12:56:40;100567.94;;;13.18;68.17
51468;BME280;37545;45.302;-122.946;2022-09-17T12:59:16;100564.50;;;13.18;67.96
51468;BME280;37545;45.302;-122.946;2022-09-17T13:01:52;100567.06;;;13.16;67.74
51468;BME280;37545;45.302;-122.946;2022-09-17T13:04:47;100560.94;;;13.14;67.52
51468;BME280;37545;45.302;-122.946;2022-09-17T13:10:40;100552.94;;;13.00;68.38